sensor_id;sensor_type;location;lat;lon;timestamp;temperature;humidity
3281;DHT22;1652;51.318;6.202;2022-07-30T00:00:12;17.10;1.00
3281;DHT22;1652;51.318;6.202;2022-07-30T00:02:51;17.20;1.00
3281;DHT22;1652;51.318;6.202;2022-07-30T00:05:18;17.00;1.00
3281;DHT22;1652;51.318;6.202;2022-07-30T00:07:45;17.00;1.00
3281;DHT22;1652;51.318;6.202;2022-07-30T00:10:12;16.90;3.20
3281;DHT22;1652;51.318;6.202;2022-07-30T00:12:39;16.90;4.10
3281;DHT22;1652;51.318;6.202;2022-07-30T00:15:06;16.90;1.00
3281;DHT22;1652;51.318;6.202;2022-07-30T00:17:33;16.90;5.40
3281;DHT22;1652;51.318;6.202;2022-07-30T00:20:00;16.90;9.90
3281;DHT22;1652;51.318;6.202;2022-07-30T00:22:29;16.90;9.20
3281;DHT22;1652;51.318;6.202;2022-07-30T00:24:56;16.80;13.90
3281;DHT22;1652;51.318;6.202;2022-07-30T00:27:23;16.80;21.60
3281;DHT22;1652;51.318;6.202;2022-07-30T00:29:50;16.70;22.40
3281;DHT22;1652;51.318;6.202;2022-07-30T00:32:17;16.80;23.90
3281;DHT22;1652;51.318;6.202;2022-07-30T00:34:44;16.70;24.40
3281;DHT22;1652;51.318;6.202;2022-07-30T00:37:11;16.60;26.80
3281;DHT22;1652;51.318;6.202;2022-07-30T00:39:37;16.60;28.10
3281;DHT22;1652;51.318;6.202;2022-07-30T00:42:04;16.60;29.00
3281;DHT22;1652;51.318;6.202;2022-07-30T00:44:31;16.60;41.00
3281;DHT22;1652;51.318;6.202;2022-07-30T00:46:58;16.60;38.70
3281;DHT22;1652;51.318;6.202;2022-07-30T00:49:26;16.60;44.60
3281;DHT22;1652;51.318;6.202;2022-07-30T00:51:53;16.50;50.00
3281;DHT22;1652;51.318;6.202;2022-07-30T00:54:20;16.50;55.20
3281;DHT22;1652;51.318;6.202;2022-07-30T00:56:48;16.50;54.00
3281;DHT22;1652;51.318;6.202;2022-07-30T00:59:15;16.40;64.00
3281;DHT22;1652;51.318;6.202;2022-07-30T01:01:42;16.40;62.20
3281;DHT22;1652;51.318;6.202;2022-07-30T01:04:10;16.40;65.70
3281;DHT22;1652;51.318;6.202;2022-07-30T01:06:38;16.40;61.70
3281;DHT22;1652;51.318;6.202;2022-07-30T01:09:06;16.40;64.70
3281;DHT22;1652;51.318;6.202;2022-07-30T01:11:38;16.30;73.00
3281;DHT22;1652;51.318;6.202;2022-07-30T01:14:08;16.30;74.50
3281;DHT22;1652;51.318;6.202;2022-07-30T01:16:37;16.30;72.90
3281;DHT22;1652;51.318;6.202;2022-07-30T01:19:42;16.30;78.00
3281;DHT22;1652;51.318;6.202;2022-07-30T01:27:34;16.20;91.60
3281;DHT22;1652;51.318;6.202;2022-07-30T01:30:04;16.20;93.40
3281;DHT22;1652;51.318;6.202;2022-07-30T01:32:33;16.10;94.80
3281;DHT22;1652;51.318;6.202;2022-07-30T01:35:01;16.20;97.00
3281;DHT22;1652;51.318;6.202;2022-07-30T01:37:31;16.10;97.30
3281;DHT22;1652;51.318;6.202;2022-07-30T01:39:59;16.10;97.40
3281;DHT22;1652;51.318;6.202;2022-07-30T01:42:27;16.20;98.00
3281;DHT22;1652;51.318;6.202;2022-07-30T01:44:56;16.20;98.90
3281;DHT22;1652;51.318;6.202;2022-07-30T01:47:24;16.20;99.90
3281;DHT22;1652;51.318;6.202;2022-07-30T01:49:54;16.10;99.90
3281;DHT22;1652;51.318;6.202;2022-07-30T01:52:22;16.10;99.90
3281;DHT22;1652;51.318;6.202;2022-07-30T01:54:53;16.20;99.90
3281;DHT22;1652;51.318;6.202;2022-07-30T01:57:22;16.10;99.90
3281;DHT22;1652;51.318;6.202;2022-07-30T01:59:51;16.10;99.90
3281;DHT22;1652;51.318;6.202;2022-07-30T02:02:20;16.10;99.90
3281;DHT22;1652;51.318;6.202;2022-07-30T02:04:47;16.00;99.90
3281;DHT22;1652;51.318;6.202;2022-07-30T02:09:53;15.90;99.90
3281;DHT22;1652;51.318;6.202;2022-07-30T02:12:24;16.00;99.90
3281;DHT22;1652;51.318;6.202;2022-07-30T02:15:17;16.00;99.90
3281;DHT22;1652;51.318;6.202;2022-07-30T02:20:29;15.80;99.90
3281;DHT22;1652;51.318;6.202;2022-07-30T02:23:06;15.80;99.90
3281;DHT22;1652;51.318;6.202;2022-07-30T02:25:35;15.80;99.90
3281;DHT22;1652;51.318;6.202;2022-07-30T02:28:07;15.70;99.90
3281;DHT22;1652;51.318;6.202;2022-07-30T02:30:39;15.70;99.90
3281;DHT22;1652;51.318;6.202;2022-07-30T02:33:08;15.70;99.90
3281;DHT22;1652;51.318;6.202;2022-07-30T02:35:37;15.70;99.90
3281;DHT22;1652;51.318;6.202;2022-07-30T02:38:04;15.70;99.90
3281;DHT22;1652;51.318;6.202;2022-07-30T02:40:31;15.60;99.90
3281;DHT22;1652;51.318;6.202;2022-07-30T02:43:00;15.60;99.90
3281;DHT22;1652;51.318;6.202;2022-07-30T02:45:29;15.60;99.90
3281;DHT22;1652;51.318;6.202;2022-07-30T02:48:00;15.50;99.90
3281;DHT22;1652;51.318;6.202;2022-07-30T02:50:28;15.50;99.90
3281;DHT22;1652;51.318;6.202;2022-07-30T02:52:58;15.50;99.90
3281;DHT22;1652;51.318;6.202;2022-07-30T02:55:28;15.50;99.90
3281;DHT22;1652;51.318;6.202;2022-07-30T02:57:56;15.50;99.90
3281;DHT22;1652;51.318;6.202;2022-07-30T03:00:25;15.50;99.90
3281;DHT22;1652;51.318;6.202;2022-07-30T03:02:55;15.50;99.90
3281;DHT22;1652;51.318;6.202;2022-07-30T03:05:24;15.40;99.90
3281;DHT22;1652;51.318;6.202;2022-07-30T03:07:54;15.50;99.90
3281;DHT22;1652;51.318;6.202;2022-07-30T03:10:23;15.50;99.90
3281;DHT22;1652;51.318;6.202;2022-07-30T03:12:50;15.40;99.90
3281;DHT22;1652;51.318;6.202;2022-07-30T03:15:18;15.40;99.90
3281;DHT22;1652;51.318;6.202;2022-07-30T03:17:49;15.30;99.90
3281;DHT22;1652;51.318;6.202;2022-07-30T03:20:19;15.30;99.90
3281;DHT22;1652;51.318;6.202;2022-07-30T03:22:50;15.30;99.90
3281;DHT22;1652;51.318;6.202;2022-07-30T03:25:30;15.30;99.90
3281;DHT22;1652;51.318;6.202;2022-07-30T03:28:00;15.30;99.90
3281;DHT22;1652;51.318;6.202;2022-07-30T03:30:28;15.40;99.90
3281;DHT22;1652;51.318;6.202;2022-07-30T03:32:56;15.40;99.90
3281;DHT22;1652;51.318;6.202;2022-07-30T03:35:24;15.50;99.90
3281;DHT22;1652;51.318;6.202;2022-07-30T03:37:53;15.60;99.90
3281;DHT22;1652;51.318;6.202;2022-07-30T03:40:21;15.80;99.90
3281;DHT22;1652;51.318;6.202;2022-07-30T03:42:49;15.70;99.90
3281;DHT22;1652;51.318;6.202;2022-07-30T03:45:20;15.80;99.90
3281;DHT22;1652;51.318;6.202;2022-07-30T03:47:49;15.80;99.90
3281;DHT22;1652;51.318;6.202;2022-07-30T03:50:17;15.90;99.90
3281;DHT22;1652;51.318;6.202;2022-07-30T03:52:45;16.00;99.90
3281;DHT22;1652;51.318;6.202;2022-07-30T03:55:15;16.10;99.90
3281;DHT22;1652;51.318;6.202;2022-07-30T03:57:48;16.10;99.90
3281;DHT22;1652;51.318;6.202;2022-07-30T04:00:17;16.10;99.90
3281;DHT22;1652;51.318;6.202;2022-07-30T04:02:49;16.10;99.90
3281;DHT22;1652;51.318;6.202;2022-07-30T04:05:27;16.10;99.90
3281;DHT22;1652;51.318;6.202;2022-07-30T04:08:07;16.10;99.90
3281;DHT22;1652;51.318;6.202;2022-07-30T04:10:34;16.10;99.90
3281;DHT22;1652;51.318;6.202;2022-07-30T04:13:04;16.10;99.90
3281;DHT22;1652;51.318;6.202;2022-07-30T04:18:57;16.10;99.90
3281;DHT22;1652;51.318;6.202;2022-07-30T04:21:26;16.10;99.90
3281;DHT22;1652;51.318;6.202;2022-07-30T04:23:54;16.10;99.90
3281;DHT22;1652;51.318;6.202;2022-07-30T04:26:34;16.10;99.90
3281;DHT22;1652;51.318;6.202;2022-07-30T04:29:05;16.00;99.90
3281;DHT22;1652;51.318;6.202;2022-07-30T04:31:33;16.10;99.90
3281;DHT22;1652;51.318;6.202;2022-07-30T04:34:53;16.10;99.90
3281;DHT22;1652;51.318;6.202;2022-07-30T04:37:40;16.20;99.90
3281;DHT22;1652;51.318;6.202;2022-07-30T04:40:07;16.20;99.90
3281;DHT22;1652;51.318;6.202;2022-07-30T04:42:35;16.30;99.90
3281;DHT22;1652;51.318;6.202;2022-07-30T04:45:05;16.30;99.90
3281;DHT22;1652;51.318;6.202;2022-07-30T04:47:47;16.30;99.90
3281;DHT22;1652;51.318;6.202;2022-07-30T04:50:35;16.30;99.90
3281;DHT22;1652;51.318;6.202;2022-07-30T04:53:06;16.30;99.90
3281;DHT22;1652;51.318;6.202;2022-07-30T04:55:41;16.40;99.90
3281;DHT22;1652;51.318;6.202;2022-07-30T04:58:10;16.40;99.90
3281;DHT22;1652;51.318;6.202;2022-07-30T05:00:38;16.40;99.90
3281;DHT22;1652;51.318;6.202;2022-07-30T05:03:12;16.30;99.90
3281;DHT22;1652;51.318;6.202;2022-07-30T05:05:44;16.30;99.90
3281;DHT22;1652;51.318;6.202;2022-07-30T05:08:12;16.30;99.90
3281;DHT22;1652;51.318;6.202;2022-07-30T05:10:41;16.40;99.90
3281;DHT22;1652;51.318;6.202;2022-07-30T05:13:12;16.40;99.90
3281;DHT22;1652;51.318;6.202;2022-07-30T05:15:40;16.40;99.90
3281;DHT22;1652;51.318;6.202;2022-07-30T05:18:10;16.50;99.90
3281;DHT22;1652;51.318;6.202;2022-07-30T05:20:40;16.50;99.90
3281;DHT22;1652;51.318;6.202;2022-07-30T05:23:18;16.50;99.90
3281;DHT22;1652;51.318;6.202;2022-07-30T05:26:02;16.60;99.90
3281;DHT22;1652;51.318;6.202;2022-07-30T05:28:35;16.50;99.90
3281;DHT22;1652;51.318;6.202;2022-07-30T05:31:06;16.60;99.90
3281;DHT22;1652;51.318;6.202;2022-07-30T05:33:34;16.60;99.90
3281;DHT22;1652;51.318;6.202;2022-07-30T05:36:09;16.70;99.90
3281;DHT22;1652;51.318;6.202;2022-07-30T05:38:37;16.80;99.90
3281;DHT22;1652;51.318;6.202;2022-07-30T05:41:29;16.80;99.90
3281;DHT22;1652;51.318;6.202;2022-07-30T05:44:06;16.90;99.90
3281;DHT22;1652;51.318;6.202;2022-07-30T05:46:34;16.90;99.90
3281;DHT22;1652;51.318;6.202;2022-07-30T05:49:01;17.00;99.90
3281;DHT22;1652;51.318;6.202;2022-07-30T05:51:28;17.00;99.90
3281;DHT22;1652;51.318;6.202;2022-07-30T05:53:55;17.00;99.90
3281;DHT22;1652;51.318;6.202;2022-07-30T05:56:54;17.10;99.90
3281;DHT22;1652;51.318;6.202;2022-07-30T05:59:31;17.30;99.90
3281;DHT22;1652;51.318;6.202;2022-07-30T06:02:08;17.30;99.90
3281;DHT22;1652;51.318;6.202;2022-07-30T06:04:56;17.50;99.90
3281;DHT22;1652;51.318;6.202;2022-07-30T06:07:23;17.60;99.90
3281;DHT22;1652;51.318;6.202;2022-07-30T06:09:52;17.50;99.90
3281;DHT22;1652;51.318;6.202;2022-07-30T06:12:19;17.60;99.90
3281;DHT22;1652;51.318;6.202;2022-07-30T06:14:47;17.70;99.90
3281;DHT22;1652;51.318;6.202;2022-07-30T06:17:21;17.70;99.90
3281;DHT22;1652;51.318;6.202;2022-07-30T06:20:13;17.70;99.90
3281;DHT22;1652;51.318;6.202;2022-07-30T06:23:01;17.80;99.90
3281;DHT22;1652;51.318;6.202;2022-07-30T06:25:49;18.20;99.90
3281;DHT22;1652;51.318;6.202;2022-07-30T06:28:17;18.70;99.90
3281;DHT22;1652;51.318;6.202;2022-07-30T06:31:05;19.30;99.90
3281;DHT22;1652;51.318;6.202;2022-07-30T06:33:33;19.70;95.70
3281;DHT22;1652;51.318;6.202;2022-07-30T06:36:00;19.80;80.30
3281;DHT22;1652;51.318;6.202;2022-07-30T06:38:32;19.80;81.30
3281;DHT22;1652;51.318;6.202;2022-07-30T06:41:07;19.80;72.90
3281;DHT22;1652;51.318;6.202;2022-07-30T06:43:49;19.90;86.60
3281;DHT22;1652;51.318;6.202;2022-07-30T06:46:43;20.70;65.10
3281;DHT22;1652;51.318;6.202;2022-07-30T06:49:11;20.90;34.80
3281;DHT22;1652;51.318;6.202;2022-07-30T06:51:41;20.70;37.80
3281;DHT22;1652;51.318;6.202;2022-07-30T06:54:08;20.60;44.20
3281;DHT22;1652;51.318;6.202;2022-07-30T06:56:35;20.70;38.90
3281;DHT22;1652;51.318;6.202;2022-07-30T06:59:05;21.40;27.00
3281;DHT22;1652;51.318;6.202;2022-07-30T07:01:50;22.20;1.00
3281;DHT22;1652;51.318;6.202;2022-07-30T07:04:21;22.90;99.90
3281;DHT22;1652;51.318;6.202;2022-07-30T07:06:49;23.40;80.20
3281;DHT22;1652;51.318;6.202;2022-07-30T07:09:24;24.60;99.90
3281;DHT22;1652;51.318;6.202;2022-07-30T07:12:13;25.20;1.00
3281;DHT22;1652;51.318;6.202;2022-07-30T07:14:42;25.90;1.00
3281;DHT22;1652;51.318;6.202;2022-07-30T07:17:10;26.20;13.70
3281;DHT22;1652;51.318;6.202;2022-07-30T07:19:55;26.70;99.90
3281;DHT22;1652;51.318;6.202;2022-07-30T07:22:29;27.70;99.90
3281;DHT22;1652;51.318;6.202;2022-07-30T07:24:56;27.10;99.90
3281;DHT22;1652;51.318;6.202;2022-07-30T07:27:27;27.10;1.00
3281;DHT22;1652;51.318;6.202;2022-07-30T07:29:57;27.40;1.00
3281;DHT22;1652;51.318;6.202;2022-07-30T07:32:32;28.00;1.00
3281;DHT22;1652;51.318;6.202;2022-07-30T07:35:00;28.20;99.90
3281;DHT22;1652;51.318;6.202;2022-07-30T07:37:28;28.40;99.90
3281;DHT22;1652;51.318;6.202;2022-07-30T07:39:56;29.10;1.00
3281;DHT22;1652;51.318;6.202;2022-07-30T07:42:23;29.60;1.00
3281;DHT22;1652;51.318;6.202;2022-07-30T07:44:51;29.20;99.90
3281;DHT22;1652;51.318;6.202;2022-07-30T07:47:18;29.00;1.00
3281;DHT22;1652;51.318;6.202;2022-07-30T07:50:00;28.00;1.00
3281;DHT22;1652;51.318;6.202;2022-07-30T07:52:28;27.70;1.00
3281;DHT22;1652;51.318;6.202;2022-07-30T07:54:55;28.00;1.00
3281;DHT22;1652;51.318;6.202;2022-07-30T07:57:22;28.10;1.00
3281;DHT22;1652;51.318;6.202;2022-07-30T07:59:50;28.30;1.00
3281;DHT22;1652;51.318;6.202;2022-07-30T08:02:25;28.70;1.00
3281;DHT22;1652;51.318;6.202;2022-07-30T08:05:05;29.00;99.90
3281;DHT22;1652;51.318;6.202;2022-07-30T08:08:01;29.70;99.90
3281;DHT22;1652;51.318;6.202;2022-07-30T08:10:47;29.70;99.90
3281;DHT22;1652;51.318;6.202;2022-07-30T08:13:40;29.10;99.90
3281;DHT22;1652;51.318;6.202;2022-07-30T08:16:50;29.20;99.90
3281;DHT22;1652;51.318;6.202;2022-07-30T08:19:32;30.20;99.90
3281;DHT22;1652;51.318;6.202;2022-07-30T08:22:11;30.30;99.90
3281;DHT22;1652;51.318;6.202;2022-07-30T08:24:39;30.70;99.90
3281;DHT22;1652;51.318;6.202;2022-07-30T08:27:06;30.80;99.90
3281;DHT22;1652;51.318;6.202;2022-07-30T08:29:33;31.00;99.90
3281;DHT22;1652;51.318;6.202;2022-07-30T08:32:01;30.60;99.90
3281;DHT22;1652;51.318;6.202;2022-07-30T08:34:29;30.60;99.90
3281;DHT22;1652;51.318;6.202;2022-07-30T08:36:56;30.90;99.90
3281;DHT22;1652;51.318;6.202;2022-07-30T08:39:24;30.40;99.90
3281;DHT22;1652;51.318;6.202;2022-07-30T08:41:51;30.40;99.90
3281;DHT22;1652;51.318;6.202;2022-07-30T08:44:19;29.90;99.90
3281;DHT22;1652;51.318;6.202;2022-07-30T08:46:50;29.40;99.90
3281;DHT22;1652;51.318;6.202;2022-07-30T08:49:27;28.60;99.90
3281;DHT22;1652;51.318;6.202;2022-07-30T08:51:55;27.90;99.90
3281;DHT22;1652;51.318;6.202;2022-07-30T08:54:48;28.20;99.90
3281;DHT22;1652;51.318;6.202;2022-07-30T08:57:15;28.90;99.90
3281;DHT22;1652;51.318;6.202;2022-07-30T08:59:43;29.10;99.90
3281;DHT22;1652;51.318;6.202;2022-07-30T09:02:30;29.10;99.90
3281;DHT22;1652;51.318;6.202;2022-07-30T09:05:02;29.30;99.90
3281;DHT22;1652;51.318;6.202;2022-07-30T09:07:31;29.20;99.90
3281;DHT22;1652;51.318;6.202;2022-07-30T09:10:01;29.00;99.90
3281;DHT22;1652;51.318;6.202;2022-07-30T09:12:40;28.60;99.90
3281;DHT22;1652;51.318;6.202;2022-07-30T09:15:14;28.80;99.90
3281;DHT22;1652;51.318;6.202;2022-07-30T09:20:22;28.80;99.90
3281;DHT22;1652;51.318;6.202;2022-07-30T09:22:55;28.80;99.90
3281;DHT22;1652;51.318;6.202;2022-07-30T09:25:45;28.50;99.90
3281;DHT22;1652;51.318;6.202;2022-07-30T09:28:33;28.60;99.90
3281;DHT22;1652;51.318;6.202;2022-07-30T09:31:19;28.30;99.90
3281;DHT22;1652;51.318;6.202;2022-07-30T09:34:23;28.30;99.90
3281;DHT22;1652;51.318;6.202;2022-07-30T09:36:50;28.80;99.90
3281;DHT22;1652;51.318;6.202;2022-07-30T09:39:39;28.80;99.90
3281;DHT22;1652;51.318;6.202;2022-07-30T09:42:19;29.00;99.90
3281;DHT22;1652;51.318;6.202;2022-07-30T09:44:47;29.30;99.90
3281;DHT22;1652;51.318;6.202;2022-07-30T09:47:33;29.30;99.90
3281;DHT22;1652;51.318;6.202;2022-07-30T09:50:06;28.30;99.90
3281;DHT22;1652;51.318;6.202;2022-07-30T09:52:35;27.30;99.90
3281;DHT22;1652;51.318;6.202;2022-07-30T09:55:11;26.90;99.90
3281;DHT22;1652;51.318;6.202;2022-07-30T10:00:29;26.20;1.00
3281;DHT22;1652;51.318;6.202;2022-07-30T10:03:14;25.90;1.00
3281;DHT22;1652;51.318;6.202;2022-07-30T10:06:30;25.50;1.00
3281;DHT22;1652;51.318;6.202;2022-07-30T10:08:57;25.00;1.00
3281;DHT22;1652;51.318;6.202;2022-07-30T10:11:25;24.80;1.00
3281;DHT22;1652;51.318;6.202;2022-07-30T10:13:58;24.60;1.00
3281;DHT22;1652;51.318;6.202;2022-07-30T10:16:28;24.70;1.00
3281;DHT22;1652;51.318;6.202;2022-07-30T10:19:00;24.80;1.00
3281;DHT22;1652;51.318;6.202;2022-07-30T10:21:48;24.70;80.20
3281;DHT22;1652;51.318;6.202;2022-07-30T10:24:35;24.30;1.00
3281;DHT22;1652;51.318;6.202;2022-07-30T10:27:19;24.30;99.90
3281;DHT22;1652;51.318;6.202;2022-07-30T10:30:18;24.20;1.00
3281;DHT22;1652;51.318;6.202;2022-07-30T10:32:53;24.20;1.00
3281;DHT22;1652;51.318;6.202;2022-07-30T10:35:22;24.00;1.00
3281;DHT22;1652;51.318;6.202;2022-07-30T10:38:07;24.30;1.00
3281;DHT22;1652;51.318;6.202;2022-07-30T10:40:47;24.40;99.90
3281;DHT22;1652;51.318;6.202;2022-07-30T10:46:21;24.40;1.00
3281;DHT22;1652;51.318;6.202;2022-07-30T10:48:52;24.60;99.90
3281;DHT22;1652;51.318;6.202;2022-07-30T10:51:42;24.60;99.90
3281;DHT22;1652;51.318;6.202;2022-07-30T10:57:07;24.60;1.00
3281;DHT22;1652;51.318;6.202;2022-07-30T11:02:27;24.50;1.00
3281;DHT22;1652;51.318;6.202;2022-07-30T11:07:47;24.50;1.00
3281;DHT22;1652;51.318;6.202;2022-07-30T11:10:39;24.30;1.00
3281;DHT22;1652;51.318;6.202;2022-07-30T11:13:09;24.20;1.00
3281;DHT22;1652;51.318;6.202;2022-07-30T11:15:56;24.10;1.00
3281;DHT22;1652;51.318;6.202;2022-07-30T11:18:25;24.20;1.00
3281;DHT22;1652;51.318;6.202;2022-07-30T11:21:16;24.20;1.00
3281;DHT22;1652;51.318;6.202;2022-07-30T11:23:48;24.40;1.00
3281;DHT22;1652;51.318;6.202;2022-07-30T11:29:18;24.60;1.00
3281;DHT22;1652;51.318;6.202;2022-07-30T11:32:25;24.70;1.00
3281;DHT22;1652;51.318;6.202;2022-07-30T11:35:10;24.80;1.00
3281;DHT22;1652;51.318;6.202;2022-07-30T11:38:07;24.70;1.00
3281;DHT22;1652;51.318;6.202;2022-07-30T11:43:29;24.70;1.00
3281;DHT22;1652;51.318;6.202;2022-07-30T11:46:19;24.90;99.90
3281;DHT22;1652;51.318;6.202;2022-07-30T11:48:59;25.00;1.00
3281;DHT22;1652;51.318;6.202;2022-07-30T11:51:43;25.10;1.00
3281;DHT22;1652;51.318;6.202;2022-07-30T11:54:10;25.10;1.00
3281;DHT22;1652;51.318;6.202;2022-07-30T11:56:55;24.90;1.00
3281;DHT22;1652;51.318;6.202;2022-07-30T11:59:30;24.90;1.00
3281;DHT22;1652;51.318;6.202;2022-07-30T12:01:57;24.80;1.00
3281;DHT22;1652;51.318;6.202;2022-07-30T12:04:28;24.90;1.00
3281;DHT22;1652;51.318;6.202;2022-07-30T12:06:55;24.90;1.00
3281;DHT22;1652;51.318;6.202;2022-07-30T12:09:23;25.00;99.90
3281;DHT22;1652;51.318;6.202;2022-07-30T12:11:55;25.00;99.90
3281;DHT22;1652;51.318;6.202;2022-07-30T12:14:23;24.90;99.90
3281;DHT22;1652;51.318;6.202;2022-07-30T12:16:53;25.00;1.00
3281;DHT22;1652;51.318;6.202;2022-07-30T12:19:20;25.10;99.90
3281;DHT22;1652;51.318;6.202;2022-07-30T12:21:48;25.20;99.90
3281;DHT22;1652;51.318;6.202;2022-07-30T12:24:24;25.20;99.90
3281;DHT22;1652;51.318;6.202;2022-07-30T12:26:52;25.10;99.90
3281;DHT22;1652;51.318;6.202;2022-07-30T12:29:29;25.10;99.90
3281;DHT22;1652;51.318;6.202;2022-07-30T12:31:57;25.20;99.90
3281;DHT22;1652;51.318;6.202;2022-07-30T12:34:25;25.20;99.90
3281;DHT22;1652;51.318;6.202;2022-07-30T12:36:53;25.20;99.90
3281;DHT22;1652;51.318;6.202;2022-07-30T12:39:22;24.90;99.90
3281;DHT22;1652;51.318;6.202;2022-07-30T12:41:51;24.90;99.90
3281;DHT22;1652;51.318;6.202;2022-07-30T12:44:38;25.10;99.90
3281;DHT22;1652;51.318;6.202;2022-07-30T12:47:18;25.10;1.00
3281;DHT22;1652;51.318;6.202;2022-07-30T12:49:45;25.30;99.90
3281;DHT22;1652;51.318;6.202;2022-07-30T12:52:26;25.30;99.90
3281;DHT22;1652;51.318;6.202;2022-07-30T13:00:18;25.10;99.90
3281;DHT22;1652;51.318;6.202;2022-07-30T13:02:45;25.20;99.90
3281;DHT22;1652;51.318;6.202;2022-07-30T13:05:12;25.20;99.90
3281;DHT22;1652;51.318;6.202;2022-07-30T13:07:53;25.30;99.90
3281;DHT22;1652;51.318;6.202;2022-07-30T13:10:20;25.50;99.90
3281;DHT22;1652;51.318;6.202;2022-07-30T13:12:47;25.50;99.90
3281;DHT22;1652;51.318;6.202;2022-07-30T13:15:21;25.70;99.90
3281;DHT22;1652;51.318;6.202;2022-07-30T13:17:48;25.90;99.90
3281;DHT22;1652;51.318;6.202;2022-07-30T13:20:16;26.00;99.90
3281;DHT22;1652;51.318;6.202;2022-07-30T13:22:43;26.30;99.90
3281;DHT22;1652;51.318;6.202;2022-07-30T13:25:11;26.40;99.90
3281;DHT22;1652;51.318;6.202;2022-07-30T13:27:38;26.40;99.90
3281;DHT22;1652;51.318;6.202;2022-07-30T13:30:06;26.40;99.90
3281;DHT22;1652;51.318;6.202;2022-07-30T13:32:33;26.60;99.90
3281;DHT22;1652;51.318;6.202;2022-07-30T13:35:00;26.70;99.90
3281;DHT22;1652;51.318;6.202;2022-07-30T13:37:28;26.90;99.90
3281;DHT22;1652;51.318;6.202;2022-07-30T13:40:05;26.80;99.90
3281;DHT22;1652;51.318;6.202;2022-07-30T13:42:32;27.00;99.90
3281;DHT22;1652;51.318;6.202;2022-07-30T13:44:59;27.00;99.90
3281;DHT22;1652;51.318;6.202;2022-07-30T13:47:26;26.60;99.90
3281;DHT22;1652;51.318;6.202;2022-07-30T13:49:53;26.50;99.90
3281;DHT22;1652;51.318;6.202;2022-07-30T13:52:20;26.70;99.90
3281;DHT22;1652;51.318;6.202;2022-07-30T13:54:47;26.80;99.90
3281;DHT22;1652;51.318;6.202;2022-07-30T13:57:16;26.50;99.90
3281;DHT22;1652;51.318;6.202;2022-07-30T13:59:43;26.30;99.90
3281;DHT22;1652;51.318;6.202;2022-07-30T14:02:10;26.20;99.90
3281;DHT22;1652;51.318;6.202;2022-07-30T14:04:37;26.20;99.90
3281;DHT22;1652;51.318;6.202;2022-07-30T14:07:04;26.10;99.90
3281;DHT22;1652;51.318;6.202;2022-07-30T14:09:31;26.00;99.90
3281;DHT22;1652;51.318;6.202;2022-07-30T14:12:10;26.00;99.90
3281;DHT22;1652;51.318;6.202;2022-07-30T14:14:37;26.00;99.90
3281;DHT22;1652;51.318;6.202;2022-07-30T14:17:04;25.90;99.90
3281;DHT22;1652;51.318;6.202;2022-07-30T14:19:31;25.90;99.90
3281;DHT22;1652;51.318;6.202;2022-07-30T14:21:57;25.90;99.90
3281;DHT22;1652;51.318;6.202;2022-07-30T14:24:24;25.60;99.90
3281;DHT22;1652;51.318;6.202;2022-07-30T14:26:51;25.40;99.90
3281;DHT22;1652;51.318;6.202;2022-07-30T14:29:24;25.20;99.90
3281;DHT22;1652;51.318;6.202;2022-07-30T14:31:52;25.20;99.90
3281;DHT22;1652;51.318;6.202;2022-07-30T14:34:19;25.00;99.90
3281;DHT22;1652;51.318;6.202;2022-07-30T14:36:46;25.00;99.90
3281;DHT22;1652;51.318;6.202;2022-07-30T14:39:13;25.10;99.90
3281;DHT22;1652;51.318;6.202;2022-07-30T14:41:40;25.20;99.90
3281;DHT22;1652;51.318;6.202;2022-07-30T14:44:08;25.20;99.90
3281;DHT22;1652;51.318;6.202;2022-07-30T14:46:38;25.20;99.90
3281;DHT22;1652;51.318;6.202;2022-07-30T14:49:19;25.30;99.90
3281;DHT22;1652;51.318;6.202;2022-07-30T14:51:46;25.30;99.90
3281;DHT22;1652;51.318;6.202;2022-07-30T14:54:13;25.40;99.90
3281;DHT22;1652;51.318;6.202;2022-07-30T14:56:40;25.50;99.90
3281;DHT22;1652;51.318;6.202;2022-07-30T14:59:07;25.40;99.90
3281;DHT22;1652;51.318;6.202;2022-07-30T15:01:34;25.40;99.90
3281;DHT22;1652;51.318;6.202;2022-07-30T15:04:02;25.50;99.90
3281;DHT22;1652;51.318;6.202;2022-07-30T15:06:28;25.60;99.90
3281;DHT22;1652;51.318;6.202;2022-07-30T15:08:55;25.70;99.90
3281;DHT22;1652;51.318;6.202;2022-07-30T15:11:22;25.80;99.90
3281;DHT22;1652;51.318;6.202;2022-07-30T15:13:51;25.90;99.90
3281;DHT22;1652;51.318;6.202;2022-07-30T15:16:18;26.00;99.90
3281;DHT22;1652;51.318;6.202;2022-07-30T15:18:46;25.90;99.90
3281;DHT22;1652;51.318;6.202;2022-07-30T15:21:13;25.90;99.90
3281;DHT22;1652;51.318;6.202;2022-07-30T15:23:40;25.90;99.90
3281;DHT22;1652;51.318;6.202;2022-07-30T15:26:07;26.00;99.90
3281;DHT22;1652;51.318;6.202;2022-07-30T15:28:33;26.00;99.90
3281;DHT22;1652;51.318;6.202;2022-07-30T15:31:00;26.00;99.90
3281;DHT22;1652;51.318;6.202;2022-07-30T15:33:28;26.10;99.90
3281;DHT22;1652;51.318;6.202;2022-07-30T15:36:01;26.30;99.90
3281;DHT22;1652;51.318;6.202;2022-07-30T15:38:28;26.40;99.90
3281;DHT22;1652;51.318;6.202;2022-07-30T15:40:55;26.30;99.90
3281;DHT22;1652;51.318;6.202;2022-07-30T15:43:22;26.10;99.90
3281;DHT22;1652;51.318;6.202;2022-07-30T15:45:53;25.90;99.90
3281;DHT22;1652;51.318;6.202;2022-07-30T15:48:23;26.00;99.90
3281;DHT22;1652;51.318;6.202;2022-07-30T15:50:59;26.00;99.90
3281;DHT22;1652;51.318;6.202;2022-07-30T15:53:28;25.90;99.90
3281;DHT22;1652;51.318;6.202;2022-07-30T15:55:57;25.80;99.90
3281;DHT22;1652;51.318;6.202;2022-07-30T15:58:24;25.90;99.90
3281;DHT22;1652;51.318;6.202;2022-07-30T16:00:51;25.90;99.90
3281;DHT22;1652;51.318;6.202;2022-07-30T16:03:19;25.90;99.90
3281;DHT22;1652;51.318;6.202;2022-07-30T16:05:46;25.90;99.90
3281;DHT22;1652;51.318;6.202;2022-07-30T16:08:21;25.90;99.90
3281;DHT22;1652;51.318;6.202;2022-07-30T16:10:49;25.90;99.90
3281;DHT22;1652;51.318;6.202;2022-07-30T16:13:17;25.90;99.90
3281;DHT22;1652;51.318;6.202;2022-07-30T16:15:45;26.00;99.90
3281;DHT22;1652;51.318;6.202;2022-07-30T16:18:11;26.10;99.90
3281;DHT22;1652;51.318;6.202;2022-07-30T16:20:39;26.20;99.90
3281;DHT22;1652;51.318;6.202;2022-07-30T16:23:06;26.30;99.90
3281;DHT22;1652;51.318;6.202;2022-07-30T16:25:40;26.40;99.90
3281;DHT22;1652;51.318;6.202;2022-07-30T16:28:07;26.50;99.90
3281;DHT22;1652;51.318;6.202;2022-07-30T16:30:34;26.50;99.90
3281;DHT22;1652;51.318;6.202;2022-07-30T16:33:17;26.40;99.90
3281;DHT22;1652;51.318;6.202;2022-07-30T16:35:48;26.30;99.90
3281;DHT22;1652;51.318;6.202;2022-07-30T16:38:18;26.30;99.90
3281;DHT22;1652;51.318;6.202;2022-07-30T16:40:48;26.20;99.90
3281;DHT22;1652;51.318;6.202;2022-07-30T16:43:17;26.20;99.90
3281;DHT22;1652;51.318;6.202;2022-07-30T16:45:54;26.10;99.90
3281;DHT22;1652;51.318;6.202;2022-07-30T16:48:21;25.90;99.90
3281;DHT22;1652;51.318;6.202;2022-07-30T16:50:48;25.70;99.90
3281;DHT22;1652;51.318;6.202;2022-07-30T16:53:15;25.50;99.90
3281;DHT22;1652;51.318;6.202;2022-07-30T16:55:43;25.40;99.90
3281;DHT22;1652;51.318;6.202;2022-07-30T16:58:10;25.30;99.90
3281;DHT22;1652;51.318;6.202;2022-07-30T17:00:38;25.30;99.90
3281;DHT22;1652;51.318;6.202;2022-07-30T17:03:05;25.20;99.90
3281;DHT22;1652;51.318;6.202;2022-07-30T17:05:32;25.20;1.00
3281;DHT22;1652;51.318;6.202;2022-07-30T17:07:59;25.20;99.90
3281;DHT22;1652;51.318;6.202;2022-07-30T17:10:26;25.40;1.00
3281;DHT22;1652;51.318;6.202;2022-07-30T17:12:54;25.40;1.00
3281;DHT22;1652;51.318;6.202;2022-07-30T17:15:23;25.20;1.00
3281;DHT22;1652;51.318;6.202;2022-07-30T17:17:59;25.10;1.00